Time;durP1;ratioP1;P1;durP2;ratioP2;P2;SDS_P1;SDS_P2;PMS_P1;PMS_P2;Temp;Humidity;BMP_temperature;BMP_pressure;BME280_temperature;BME280_humidity;BME280_pressure;Samples;Min_cycle;Max_cycle;Signal;HPM_P1;HPM_P2
2022/12/10 00:00:00;;;;;;;0.00;0.00;;;;;;;15.82;46.96;100939.56;2048232;28;20067;-75
2022/12/10 00:01:06;;;;;;;0.00;0.00;;;;;;;15.81;46.98;100937.22;2050601;28;20058;-76
2022/12/10 00:02:08;;;;;;;0.00;0.00;;;;;;;15.82;47.15;100941.50;2052342;28;21041;-74
2022/12/10 00:03:10;;;;;;;0.00;0.00;;;;;;;15.81;46.86;100943.41;2058710;28;20054;-75
2022/12/10 00:04:14;;;;;;;0.00;0.00;;;;;;;15.83;47.18;100938.41;2062369;28;20553;-75
2022/12/10 00:05:16;;;;;;;0.00;0.00;;;;;;;15.82;47.13;100942.28;2045181;28;20631;-76
2022/12/10 00:06:20;;;;;;;0.00;0.00;;;;;;;15.82;47.08;100942.28;2052131;28;20042;-75
2022/12/10 00:07:23;;;;;;;0.00;0.00;;;;;;;15.82;46.98;100942.28;2056638;28;20050;-74
2022/12/10 00:08:25;;;;;;;0.00;0.00;;;;;;;15.82;47.08;100950.44;2051203;28;20054;-74
2022/12/10 00:09:28;;;;;;;0.00;0.00;;;;;;;15.82;47.13;100947.72;2058151;28;20152;-75
2022/12/10 00:10:29;;;;;;;0.00;0.00;;;;;;;15.83;47.13;100940.31;2052102;28;20392;-75
2022/12/10 00:11:32;;;;;;;0.00;0.00;;;;;;;15.83;46.99;100943.84;2053356;28;20051;-74
2022/12/10 00:12:34;;;;;;;0.00;0.00;;;;;;;15.82;47.00;100942.28;2049456;28;20097;-75
2022/12/10 00:13:39;;;;;;;0.00;0.00;;;;;;;15.84;47.43;100945.41;2046444;28;20051;-75
2022/12/10 00:14:41;;;;;;;0.00;0.00;;;;;;;15.79;47.16;100940.28;2054274;28;20051;-76
2022/12/10 00:15:43;;;;;;;0.00;0.00;;;;;;;15.83;47.09;100943.03;2055821;28;20125;-75
2022/12/10 00:16:45;;;;;;;0.00;0.00;;;;;;;15.81;47.21;100935.25;2067994;28;20050;-74
2022/12/10 00:17:48;;;;;;;0.00;0.00;;;;;;;15.83;47.10;100943.03;2057218;28;20062;-75
2022/12/10 00:18:50;;;;;;;0.00;0.00;;;;;;;15.83;47.57;100943.84;2050242;28;20155;-75
2022/12/10 00:19:53;;;;;;;0.00;0.00;;;;;;;15.84;47.21;100945.41;2053077;28;20130;-75
2022/12/10 00:20:55;;;;;;;0.00;0.00;;;;;;;15.82;47.04;100942.28;2052320;28;20637;-74
2022/12/10 00:21:58;;;;;;;0.00;0.00;;;;;;;15.82;47.31;100945.00;2048417;28;20061;-74
2022/12/10 00:23:00;;;;;;;0.00;0.00;;;;;;;15.83;47.17;100943.03;2054925;28;20093;-74
2022/12/10 00:24:04;;;;;;;0.00;0.00;;;;;;;15.83;47.20;100948.50;2054581;28;20050;-76
2022/12/10 00:25:07;;;;;;;0.00;0.00;;;;;;;15.83;47.28;100946.56;2050136;28;20146;-75
2022/12/10 00:26:12;;;;;;;0.00;0.00;;;;;;;15.85;47.16;100957.06;2056951;28;20058;-75
2022/12/10 00:27:14;;;;;;;0.00;0.00;;;;;;;15.83;47.33;100959.38;2058761;28;20093;-74
2022/12/10 00:28:17;;;;;;;0.00;0.00;;;;;;;15.83;47.35;100960.19;2053688;28;20062;-76
2022/12/10 00:29:21;;;;;;;0.00;0.00;;;;;;;15.84;47.16;100961.72;2048728;28;20117;-75
2022/12/10 00:30:22;;;;;;;0.00;0.00;;;;;;;15.84;47.32;100952.81;2047784;28;20807;-75
2022/12/10 00:31:27;;;;;;;0.00;0.00;;;;;;;15.85;47.18;100957.06;2049707;28;20059;-74
2022/12/10 00:32:29;;;;;;;0.00;0.00;;;;;;;15.83;47.41;100954.72;2058192;28;20054;-74
2022/12/10 00:33:32;;;;;;;0.00;0.00;;;;;;;15.84;47.43;100960.97;2059459;28;20061;-75
2022/12/10 00:34:34;;;;;;;0.00;0.00;;;;;;;15.83;47.57;100953.94;2050398;28;20503;-75
2022/12/10 00:35:37;;;;;;;0.00;0.00;;;;;;;15.84;47.45;100955.53;2059200;28;20050;-75
2022/12/10 00:36:42;;;;;;;0.00;0.00;;;;;;;15.83;47.38;100943.03;2058160;28;20046;-76
2022/12/10 00:37:45;;;;;;;0.00;0.00;;;;;;;15.83;47.34;100949.28;2060152;28;20058;-76
2022/12/10 00:38:48;;;;;;;0.00;0.00;;;;;;;15.84;47.57;100947.34;2060266;28;20054;-76
2022/12/10 00:39:50;;;;;;;0.00;0.00;;;;;;;15.77;47.41;100944.53;2054465;28;20297;-75
2022/12/10 00:40:52;;;;;;;0.00;0.00;;;;;;;15.84;47.48;100950.06;2051939;28;20051;-75
2022/12/10 00:41:55;;;;;;;0.00;0.00;;;;;;;15.83;47.36;100953.94;2055703;28;20050;-75
2022/12/10 00:42:57;;;;;;;0.00;0.00;;;;;;;15.83;47.45;100952.00;2061674;28;20351;-75
2022/12/10 00:44:00;;;;;;;0.00;0.00;;;;;;;15.84;47.69;100950.84;2052140;28;20043;-75
2022/12/10 00:45:04;;;;;;;0.00;0.00;;;;;;;15.84;47.36;100947.34;2047780;28;20067;-75
2022/12/10 00:46:07;;;;;;;0.00;0.00;;;;;;;15.84;47.38;100947.34;2042817;28;20121;-75
2022/12/10 00:47:09;;;;;;;0.00;0.00;;;;;;;15.84;47.55;100950.84;2043844;28;20055;-75
2022/12/10 00:48:11;;;;;;;0.00;0.00;;;;;;;15.84;47.33;100950.84;2046351;28;20059;-75
2022/12/10 00:49:14;;;;;;;0.00;0.00;;;;;;;15.83;47.46;100943.84;2045538;28;20763;-76
2022/12/10 00:50:16;;;;;;;0.00;0.00;;;;;;;15.84;47.46;100947.34;2048376;28;20058;-76
2022/12/10 00:51:21;;;;;;;0.00;0.00;;;;;;;15.85;47.19;100946.97;2057887;28;20066;-75
2022/12/10 00:52:23;;;;;;;0.00;0.00;;;;;;;15.84;47.45;100947.34;2048555;28;20081;-76
2022/12/10 00:53:26;;;;;;;0.00;0.00;;;;;;;15.84;47.39;100945.41;2039883;28;20062;-75
2022/12/10 00:54:28;;;;;;;0.00;0.00;;;;;;;15.83;47.58;100948.50;2051523;28;20082;-78
2022/12/10 00:55:31;;;;;;;0.00;0.00;;;;;;;15.84;47.57;100948.13;2057369;28;20626;-75
2022/12/10 00:56:33;;;;;;;0.00;0.00;;;;;;;15.83;47.66;100943.84;2052371;28;20061;-76
2022/12/10 00:57:36;;;;;;;0.00;0.00;;;;;;;15.83;47.43;100940.31;2042481;28;20062;-73
2022/12/10 00:58:39;;;;;;;0.00;0.00;;;;;;;15.84;47.61;100942.69;2031863;28;20056;-74
2022/12/10 00:59:42;;;;;;;0.00;0.00;;;;;;;15.84;47.71;100956.28;2048860;28;20059;-76
2022/12/10 01:00:46;;;;;;;0.00;0.00;;;;;;;15.84;47.42;100947.34;2058534;28;20142;-74
2022/12/10 01:01:48;;;;;;;0.00;0.00;;;;;;;15.84;47.60;100947.34;2055112;28;20059;-75
2022/12/10 01:02:51;;;;;;;0.00;0.00;;;;;;;15.78;47.50;100941.44;2065938;28;20069;-73
2022/12/10 01:03:57;;;;;;;0.00;0.00;;;;;;;15.84;47.47;100944.63;2065689;28;20106;-74
2022/12/10 01:04:59;;;;;;;0.00;0.00;;;;;;;15.81;47.71;100946.16;2067367;28;20115;-76
2022/12/10 01:06:09;;;;;;;0.00;0.00;;;;;;;15.81;47.58;100956.28;2056147;28;20563;-76
2022/12/10 01:07:13;;;;;;;0.00;0.00;;;;;;;15.82;47.70;100945.00;2057511;28;20457;-76
2022/12/10 01:08:15;;;;;;;0.00;0.00;;;;;;;15.80;47.62;100944.59;2060497;28;20082;-76
2022/12/10 01:09:20;;;;;;;0.00;0.00;;;;;;;15.83;47.51;100943.03;2052719;28;20142;-75
2022/12/10 01:10:22;;;;;;;0.00;0.00;;;;;;;15.82;47.58;100942.28;2050176;28;20055;-76
2022/12/10 01:11:27;;;;;;;0.00;0.00;;;;;;;15.83;47.55;100946.56;2048388;28;20062;-75
2022/12/10 01:12:29;;;;;;;0.00;0.00;;;;;;;15.83;47.56;100948.50;2051266;28;20051;-75
2022/12/10 01:13:32;;;;;;;0.00;0.00;;;;;;;15.83;47.61;100945.78;2057970;28;20050;-75
2022/12/10 01:14:35;;;;;;;0.00;0.00;;;;;;;15.82;47.79;100942.28;2061070;28;20046;-75
2022/12/10 01:15:38;;;;;;;0.00;0.00;;;;;;;15.83;47.73;100946.56;2051266;28;20050;-75
2022/12/10 01:16:42;;;;;;;0.00;0.00;;;;;;;15.83;47.55;100943.84;2054049;28;20050;-75
2022/12/10 01:17:44;;;;;;;0.00;0.00;;;;;;;15.82;47.68;100947.72;2049432;28;20608;-75
2022/12/10 01:18:49;;;;;;;0.00;0.00;;;;;;;15.82;47.74;100947.72;2050841;28;20532;-76
2022/12/10 01:19:51;;;;;;;0.00;0.00;;;;;;;15.82;47.72;100945.00;2048604;28;20065;-76
2022/12/10 01:20:55;;;;;;;0.00;0.00;;;;;;;15.80;47.53;100944.59;2049225;28;20051;-74
2022/12/10 01:21:57;;;;;;;0.00;0.00;;;;;;;15.82;47.70;100952.38;2053890;28;20047;-75
2022/12/10 01:23:00;;;;;;;0.00;0.00;;;;;;;15.82;47.59;100952.38;2051798;28;20055;-75
2022/12/10 01:24:02;;;;;;;0.00;0.00;;;;;;;15.82;47.88;100953.19;2049206;28;20050;-75
2022/12/10 01:25:06;;;;;;;0.00;0.00;;;;;;;15.82;47.65;100953.19;2050944;28;20055;-74
2022/12/10 01:26:13;;;;;;;0.00;0.00;;;;;;;15.83;47.74;100953.94;2062696;28;20080;-75
2022/12/10 01:27:15;;;;;;;0.00;0.00;;;;;;;15.82;47.64;100957.81;2052848;28;20054;-75
2022/12/10 01:28:17;;;;;;;0.00;0.00;;;;;;;15.81;47.69;100957.03;2050751;28;20062;-75
2022/12/10 01:29:20;;;;;;;0.00;0.00;;;;;;;15.80;47.81;100952.75;2045398;28;20427;-75
2022/12/10 01:30:22;;;;;;;0.00;0.00;;;;;;;15.82;47.85;100953.19;2046087;28;20059;-75
2022/12/10 01:31:27;;;;;;;0.00;0.00;;;;;;;15.84;47.59;100960.97;2054478;28;20395;-75
2022/12/10 01:32:30;;;;;;;0.00;0.00;;;;;;;15.83;47.87;100954.72;2050623;28;20420;-74
2022/12/10 01:33:33;;;;;;;0.00;0.00;;;;;;;15.81;47.87;100957.03;2050498;28;20062;-75
2022/12/10 01:34:36;;;;;;;0.00;0.00;;;;;;;15.82;47.79;100957.81;2046661;28;20070;-75
2022/12/10 01:35:38;;;;;;;0.00;0.00;;;;;;;15.83;47.73;100951.22;2047100;28;20055;-75
2022/12/10 01:36:44;;;;;;;0.00;0.00;;;;;;;15.83;47.57;100951.22;2042889;28;20075;-76
2022/12/10 01:37:46;;;;;;;0.00;0.00;;;;;;;15.81;47.79;100956.28;2046357;28;20054;-75
2022/12/10 01:38:50;;;;;;;0.00;0.00;;;;;;;15.81;48.03;100954.31;2061283;28;20601;-74
2022/12/10 01:39:51;;;;;;;0.00;0.00;;;;;;;15.82;47.98;100958.63;2054003;28;20051;-75
2022/12/10 01:40:54;;;;;;;0.00;0.00;;;;;;;15.81;47.58;100965.19;2051338;28;20061;-75
2022/12/10 01:41:59;;;;;;;0.00;0.00;;;;;;;15.80;47.88;100958.19;2051215;28;20078;-75
2022/12/10 01:43:02;;;;;;;0.00;0.00;;;;;;;15.81;47.97;100962.47;2044028;29;20084;-75
2022/12/10 01:44:42;;;;;;;0.00;0.00;;;;;;;15.73;47.97;100960.84;2046745;28;20054;-75
2022/12/10 01:45:45;;;;;;;;;;;;;;;15.57;48.42;100952.09;2058147;28;20050;-76
2022/12/10 01:46:51;;;;;;;0.00;0.00;;;;;;;15.69;48.04;100959.22;2056627;28;20389;-76
2022/12/10 01:47:55;;;;;;;0.00;0.00;;;;;;;15.73;48.13;100955.38;2059649;28;20130;-76
2022/12/10 01:49:01;;;;;;;0.00;0.00;;;;;;;15.74;48.04;100959.69;2042877;28;20075;-75
2022/12/10 01:50:07;;;;;;;0.00;0.00;;;;;;;15.75;47.89;100958.53;2050440;28;20055;-75
2022/12/10 01:51:13;;;;;;;0.00;0.00;;;;;;;15.74;48.10;100951.53;2051821;28;20086;-75
2022/12/10 01:52:15;;;;;;;0.00;0.00;;;;;;;15.75;47.95;100953.09;2057816;28;20050;-76
2022/12/10 01:53:18;;;;;;;0.00;0.00;;;;;;;15.75;48.01;100955.81;2057466;28;20102;-75
2022/12/10 01:54:22;;;;;;;0.00;0.00;;;;;;;15.75;47.97;100952.28;2053288;28;20058;-76
2022/12/10 01:55:55;;;;;;;0.00;0.00;;;;;;;15.65;48.28;100948.28;2065054;28;20065;-74
2022/12/10 01:57:00;;;;;;;0.00;0.00;;;;;;;15.71;48.26;100946.03;2031704;29;20063;-75
2022/12/10 01:58:03;;;;;;;0.00;0.00;;;;;;;15.71;48.47;100940.59;2009647;29;20058;-74
2022/12/10 01:59:06;;;;;;;0.00;0.00;;;;;;;15.73;48.17;100944.50;2023267;28;20071;-75
2022/12/10 02:00:10;;;;;;;0.00;0.00;;;;;;;15.75;48.08;100944.91;2067180;28;20148;-76
2022/12/10 02:01:23;;;;;;;0.00;0.00;;;;;;;15.75;48.01;100947.63;2058537;28;20173;-75
2022/12/10 02:02:40;;;;;;;0.00;0.00;;;;;;;15.72;48.11;100945.66;2059702;28;20058;-75
2022/12/10 02:04:02;;;;;;;0.00;0.00;;;;;;;15.68;48.39;100941.34;2054938;28;20054;-76
2022/12/10 02:05:13;;;;;;;0.00;0.00;;;;;;;15.70;48.17;100947.97;2051662;28;20062;-76
2022/12/10 02:06:29;;;;;;;0.00;0.00;;;;;;;15.69;48.32;100946.41;2055471;28;20510;-76
2022/12/10 02:07:41;;;;;;;0.00;0.00;;;;;;;15.70;48.21;100941.72;2057604;28;20130;-76
2022/12/10 02:08:52;;;;;;;0.00;0.00;;;;;;;15.71;48.23;100946.03;2057307;28;20058;-76
2022/12/10 02:10:01;;;;;;;0.00;0.00;;;;;;;15.70;48.24;100931.63;2057798;28;20481;-76
2022/12/10 02:11:13;;;;;;;0.00;0.00;;;;;;;15.70;48.04;100944.44;2054764;28;20058;-75
2022/12/10 02:12:22;;;;;;;0.00;0.00;;;;;;;15.70;48.27;100939.81;2056911;28;20110;-76
2022/12/10 02:13:31;;;;;;;0.00;0.00;;;;;;;15.71;48.24;100938.66;2054398;28;20538;-76
2022/12/10 02:14:41;;;;;;;0.00;0.00;;;;;;;15.71;48.07;100946.84;2055210;28;20918;-74
2022/12/10 02:15:50;;;;;;;0.00;0.00;;;;;;;15.70;48.08;100949.91;2062048;28;20578;-75
2022/12/10 02:16:57;;;;;;;0.00;0.00;;;;;;;15.69;48.11;100951.84;2057257;28;20059;-75
2022/12/10 02:18:07;;;;;;;0.00;0.00;;;;;;;15.71;48.07;100948.75;2047823;28;20094;-76
2022/12/10 02:19:18;;;;;;;0.00;0.00;;;;;;;15.69;48.13;100951.84;2057135;28;20050;-76
2022/12/10 02:20:24;;;;;;;0.00;0.00;;;;;;;15.71;48.33;100941.38;2061728;28;20333;-75
2022/12/10 02:21:32;;;;;;;0.00;0.00;;;;;;;15.71;48.17;100948.75;2054854;28;20090;-75
2022/12/10 02:22:39;;;;;;;0.00;0.00;;;;;;;15.71;48.21;100952.28;2039941;28;20644;-75
2022/12/10 02:23:45;;;;;;;0.00;0.00;;;;;;;15.71;48.26;100955.00;2039177;28;20573;-75
2022/12/10 02:24:50;;;;;;;0.00;0.00;;;;;;;15.70;48.48;100956.13;2047376;28;20486;-75
2022/12/10 02:26:00;;;;;;;0.00;0.00;;;;;;;15.72;48.26;100958.47;2046443;28;20126;-77
2022/12/10 02:27:10;;;;;;;0.00;0.00;;;;;;;15.69;48.32;100951.84;2050116;28;20066;-76
2022/12/10 02:28:22;;;;;;;0.00;0.00;;;;;;;15.70;48.37;100960.78;2050102;28;20059;-76
2022/12/10 02:29:27;;;;;;;0.00;0.00;;;;;;;15.69;48.49;100965.47;2050305;28;20066;-76
2022/12/10 02:30:33;;;;;;;0.00;0.00;;;;;;;15.69;48.30;100965.47;2056451;28;20043;-77
2022/12/10 02:31:39;;;;;;;0.00;0.00;;;;;;;15.71;48.29;100968.59;2046057;28;20039;-74
2022/12/10 02:32:46;;;;;;;0.00;0.00;;;;;;;15.72;48.33;100978.31;2045955;28;20089;-75
2022/12/10 02:33:54;;;;;;;0.00;0.00;;;;;;;15.72;48.33;100969.38;2039884;28;20126;-76
2022/12/10 02:35:01;;;;;;;0.00;0.00;;;;;;;15.71;48.34;100962.38;2050234;28;20062;-76
2022/12/10 02:36:12;;;;;;;0.00;0.00;;;;;;;15.71;48.23;100956.94;2048568;28;20089;-77
2022/12/10 02:37:23;;;;;;;0.00;0.00;;;;;;;15.68;48.34;100950.28;2048840;28;20055;-75
2022/12/10 02:38:32;;;;;;;0.00;0.00;;;;;;;15.70;48.32;100956.13;2046540;28;20051;-76
2022/12/10 02:39:42;;;;;;;0.00;0.00;;;;;;;15.70;48.75;100945.25;2042390;29;20059;-75
2022/12/10 02:40:48;;;;;;;0.00;0.00;;;;;;;15.70;48.30;100956.13;2041401;28;20048;-77
2022/12/10 02:41:54;;;;;;;0.00;0.00;;;;;;;15.71;48.26;100948.75;2048316;28;20187;-74
2022/12/10 02:42:57;;;;;;;0.00;0.00;;;;;;;15.70;49.00;100958.06;2046419;28;20063;-75
2022/12/10 02:44:04;;;;;;;0.00;0.00;;;;;;;15.70;48.27;100956.13;2044882;28;20510;-75
2022/12/10 02:45:09;;;;;;;0.00;0.00;;;;;;;15.71;48.40;100962.38;2046909;28;20059;-74
2022/12/10 02:46:13;;;;;;;0.00;0.00;;;;;;;15.71;48.39;100970.53;2036536;29;20079;-75
2022/12/10 02:47:16;;;;;;;0.00;0.00;;;;;;;15.72;48.50;100974.81;2046670;28;20055;-76
2022/12/10 02:48:21;;;;;;;0.00;0.00;;;;;;;15.71;48.29;100973.25;2048849;28;20059;-76
2022/12/10 02:49:25;;;;;;;0.00;0.00;;;;;;;15.73;48.25;100968.22;2049031;28;20094;-77
2022/12/10 02:50:28;;;;;;;0.00;0.00;;;;;;;15.71;48.30;100974.06;2060343;28;20608;-76
2022/12/10 02:51:30;;;;;;;0.00;0.00;;;;;;;15.72;48.37;100975.59;2048825;28;20059;-75
2022/12/10 02:52:33;;;;;;;0.00;0.00;;;;;;;15.72;47.93;100969.38;2048973;28;20380;-76
2022/12/10 02:53:41;;;;;;;0.00;0.00;;;;;;;15.69;48.46;100965.47;2058932;28;20175;-75
2022/12/10 02:54:46;;;;;;;0.00;0.00;;;;;;;15.71;48.42;100968.59;2057782;28;20080;-75
2022/12/10 02:56:05;;;;;;;0.00;0.00;;;;;;;15.70;48.32;100972.47;2057174;28;20063;-74
2022/12/10 02:57:33;;;;;;;0.00;0.00;;;;;;;15.62;48.59;100976.25;2056218;28;20478;-75
2022/12/10 02:58:45;;;;;;;0.00;0.00;;;;;;;15.66;48.63;100965.41;2056370;28;20054;-75
2022/12/10 03:00:03;;;;;;;0.00;0.00;;;;;;;15.65;48.50;100964.63;2059928;28;20057;-75
2022/12/10 03:01:26;;;;;;;0.00;0.00;;;;;;;15.64;48.68;100968.50;2044415;28;20087;-75
2022/12/10 03:02:38;;;;;;;0.00;0.00;;;;;;;15.66;48.62;100970.88;2057076;28;20585;-75
2022/12/10 03:03:48;;;;;;;0.00;0.00;;;;;;;15.66;48.47;100977.09;2050205;28;20055;-75
2022/12/10 03:04:57;;;;;;;0.00;0.00;;;;;;;15.66;48.47;100971.66;2048922;28;20518;-76
2022/12/10 03:06:08;;;;;;;0.00;0.00;;;;;;;15.66;48.62;100974.38;2047072;28;20055;-76
2022/12/10 03:07:15;;;;;;;0.00;0.00;;;;;;;15.66;48.58;100977.09;2037241;29;20060;-75
2022/12/10 03:08:24;;;;;;;0.00;0.00;;;;;;;15.66;48.63;100968.94;2041835;29;20067;-76
2022/12/10 03:09:32;;;;;;;0.00;0.00;;;;;;;15.67;48.55;100973.22;2046906;28;20659;-76
2022/12/10 03:10:41;;;;;;;0.00;0.00;;;;;;;15.67;48.50;100970.50;2051711;28;20074;-75
2022/12/10 03:11:46;;;;;;;0.00;0.00;;;;;;;15.66;48.42;100966.22;2054655;28;20058;-72
2022/12/10 03:12:55;;;;;;;0.00;0.00;;;;;;;15.67;48.63;100970.50;2054445;28;20053;-71
2022/12/10 03:14:01;;;;;;;0.00;0.00;;;;;;;15.67;48.50;100978.66;2049303;28;20083;-71
2022/12/10 03:15:09;;;;;;;0.00;0.00;;;;;;;15.67;48.51;100989.53;2043708;28;20093;-72
2022/12/10 03:16:13;;;;;;;0.00;0.00;;;;;;;15.67;48.54;100978.66;2047486;28;20117;-71
2022/12/10 03:17:17;;;;;;;0.00;0.00;;;;;;;15.67;48.44;100967.75;2047691;28;20068;-72
2022/12/10 03:18:24;;;;;;;0.00;0.00;;;;;;;15.67;48.62;100973.22;2055782;28;20059;-73
2022/12/10 03:19:34;;;;;;;0.00;0.00;;;;;;;15.67;48.61;100983.31;2059291;28;20081;-72
2022/12/10 03:20:39;;;;;;;0.00;0.00;;;;;;;15.66;48.60;100976.31;2051831;28;20145;-71
2022/12/10 03:21:45;;;;;;;0.00;0.00;;;;;;;15.67;48.51;100970.50;2046064;28;20160;-71
2022/12/10 03:22:48;;;;;;;0.00;0.00;;;;;;;15.68;48.64;100966.59;2045262;28;20058;-71
2022/12/10 03:23:52;;;;;;;0.00;0.00;;;;;;;15.65;48.59;100964.63;2047734;28;20068;-71
2022/12/10 03:24:54;;;;;;;0.00;0.00;;;;;;;15.69;48.72;100970.13;2043207;29;20051;-71
2022/12/10 03:25:58;;;;;;;0.00;0.00;;;;;;;15.68;48.61;100963.88;2052815;28;20057;-72
2022/12/10 03:27:03;;;;;;;0.00;0.00;;;;;;;15.69;48.60;100959.22;2039007;29;20063;-71
2022/12/10 03:28:08;;;;;;;0.00;0.00;;;;;;;15.69;48.72;100960.03;2031308;29;20079;-71
2022/12/10 03:29:15;;;;;;;0.00;0.00;;;;;;;15.68;48.52;100958.44;2038487;28;20495;-72
2022/12/10 03:30:18;;;;;;;0.00;0.00;;;;;;;15.68;48.63;100955.72;2046867;28;20055;-72
2022/12/10 03:31:21;;;;;;;0.00;0.00;;;;;;;15.68;48.65;100958.44;2053251;28;20054;-72
2022/12/10 03:32:27;;;;;;;0.00;0.00;;;;;;;15.69;48.51;100946.41;2054689;28;20058;-72
2022/12/10 03:33:29;;;;;;;0.00;0.00;;;;;;;15.68;48.54;100944.81;2047359;28;20051;-71
2022/12/10 03:34:33;;;;;;;0.00;0.00;;;;;;;15.70;48.50;100952.63;2054004;28;20055;-72
2022/12/10 03:35:35;;;;;;;0.00;0.00;;;;;;;15.70;48.72;100949.91;2043816;29;20527;-71
2022/12/10 03:36:39;;;;;;;0.00;0.00;;;;;;;15.70;48.43;100945.25;2041696;29;20111;-72
2022/12/10 03:37:41;;;;;;;0.00;0.00;;;;;;;15.70;48.51;100947.16;2050662;28;20066;-72
2022/12/10 03:38:44;;;;;;;0.00;0.00;;;;;;;15.70;48.57;100944.44;2053359;28;20055;-72
2022/12/10 03:39:46;;;;;;;0.00;0.00;;;;;;;15.70;48.60;100950.69;2053304;28;20145;-72
2022/12/10 03:40:49;;;;;;;0.00;0.00;;;;;;;15.69;48.51;100951.84;2059874;28;20162;-72
2022/12/10 03:41:50;;;;;;;0.00;0.00;;;;;;;15.70;48.54;100953.41;2053165;28;20547;-76
2022/12/10 03:42:53;;;;;;;0.00;0.00;;;;;;;15.70;48.62;100939.81;2044202;28;20462;-76
2022/12/10 03:43:57;;;;;;;0.00;0.00;;;;;;;15.71;48.52;100940.59;2041059;28;20750;-76
2022/12/10 03:45:00;;;;;;;0.00;0.00;;;;;;;15.69;48.53;100943.69;2054243;28;20055;-75
2022/12/10 03:46:02;;;;;;;0.00;0.00;;;;;;;15.69;48.45;100940.97;2059830;28;20057;-75
2022/12/10 03:47:08;;;;;;;0.00;0.00;;;;;;;15.70;48.61;100939.81;2053333;28;20059;-75
2022/12/10 03:48:11;;;;;;;0.00;0.00;;;;;;;15.70;48.68;100944.44;2051833;28;20051;-76
2022/12/10 03:49:14;;;;;;;0.00;0.00;;;;;;;15.69;48.76;100943.69;2059689;28;20050;-74
2022/12/10 03:50:16;;;;;;;0.00;0.00;;;;;;;15.69;48.86;100943.69;2048722;28;20249;-75
2022/12/10 03:51:20;;;;;;;0.00;0.00;;;;;;;15.69;48.70;100949.13;2052166;28;20119;-75
2022/12/10 03:52:21;;;;;;;0.00;0.00;;;;;;;15.69;48.78;100949.13;2058967;28;20055;-75
2022/12/10 03:53:25;;;;;;;0.00;0.00;;;;;;;15.71;48.62;100952.28;2065385;28;20493;-74
2022/12/10 03:54:27;;;;;;;0.00;0.00;;;;;;;15.70;48.65;100949.91;2060329;28;20066;-76
2022/12/10 03:55:29;;;;;;;0.00;0.00;;;;;;;15.69;48.69;100949.13;2061035;28;20053;-76
2022/12/10 03:56:31;;;;;;;0.00;0.00;;;;;;;15.69;48.66;100943.69;2044831;29;20451;-77
2022/12/10 03:57:34;;;;;;;0.00;0.00;;;;;;;15.70;48.69;100944.44;2045869;28;20047;-75
2022/12/10 03:58:36;;;;;;;0.00;0.00;;;;;;;15.71;48.54;100946.03;2047372;28;20062;-76
2022/12/10 03:59:39;;;;;;;0.00;0.00;;;;;;;15.70;48.70;100939.00;2056005;28;20059;-75
2022/12/10 04:00:41;;;;;;;0.00;0.00;;;;;;;15.70;48.75;100944.44;2063415;28;20054;-76
2022/12/10 04:01:45;;;;;;;0.00;0.00;;;;;;;15.70;48.64;100941.72;2054350;28;20065;-76
2022/12/10 04:02:48;;;;;;;0.00;0.00;;;;;;;15.71;48.57;100944.09;2056492;28;20055;-75
2022/12/10 04:03:51;;;;;;;0.00;0.00;;;;;;;15.69;48.79;100946.41;2054473;28;20054;-75
2022/12/10 04:04:53;;;;;;;0.00;0.00;;;;;;;15.70;48.57;100949.91;2048796;28;20628;-74
2022/12/10 04:06:02;;;;;;;0.00;0.00;;;;;;;15.66;48.67;100944.44;2058317;28;20479;-75
2022/12/10 04:07:04;;;;;;;0.00;0.00;;;;;;;15.69;48.59;100953.78;2060608;28;20050;-77
2022/12/10 04:08:07;;;;;;;0.00;0.00;;;;;;;15.67;48.56;100948.72;2045439;29;20617;-75
2022/12/10 04:09:09;;;;;;;0.00;0.00;;;;;;;15.69;48.75;100954.56;2045536;28;20141;-75
2022/12/10 04:10:14;;;;;;;0.00;0.00;;;;;;;15.71;48.68;100954.19;2058094;28;20146;-75
2022/12/10 04:11:16;;;;;;;0.00;0.00;;;;;;;15.68;48.75;100953.00;2048696;28;20935;-76
2022/12/10 04:12:19;;;;;;;0.00;0.00;;;;;;;15.68;48.58;100958.44;2040015;28;20055;-76
2022/12/10 04:17:22;;;;;;;;;;;;;;;15.44;49.11;100956.22;2061641;28;20466;-76
2022/12/10 04:18:26;;;;;;;0.00;0.00;;;;;;;15.57;48.82;100964.94;2064419;28;20056;-75
2022/12/10 04:19:28;;;;;;;0.00;0.00;;;;;;;15.59;48.71;100960.66;2053898;28;20055;-76
2022/12/10 04:27:18;;;;;;;0.00;0.00;;;;;;;15.52;49.07;100968.75;2055692;28;20058;-77
2022/12/10 04:28:20;;;;;;;0.00;0.00;;;;;;;15.55;48.92;100964.50;2046248;28;20043;-76
2022/12/10 04:29:26;;;;;;;0.00;0.00;;;;;;;15.57;48.99;100973.84;2043817;28;20466;-77
2022/12/10 04:30:28;;;;;;;0.00;0.00;;;;;;;15.56;48.96;100964.13;2053663;28;20055;-76
2022/12/10 04:31:30;;;;;;;0.00;0.00;;;;;;;15.58;49.00;100961.84;2050645;28;20152;-77
2022/12/10 04:32:32;;;;;;;0.00;0.00;;;;;;;15.59;48.87;100962.59;2060055;28;20101;-77
2022/12/10 04:33:36;;;;;;;0.00;0.00;;;;;;;15.59;48.92;100966.13;2056957;28;20081;-77
2022/12/10 04:34:38;;;;;;;0.00;0.00;;;;;;;15.59;48.99;100960.66;2046041;28;20498;-75
2022/12/10 04:35:41;;;;;;;0.00;0.00;;;;;;;15.60;49.13;100967.66;2041991;28;20052;-77
2022/12/10 04:36:43;;;;;;;0.00;0.00;;;;;;;15.58;48.95;100974.66;2059689;28;20046;-77
2022/12/10 04:37:46;;;;;;;0.00;0.00;;;;;;;15.60;49.09;100973.13;2059603;28;20581;-77
2022/12/10 04:38:48;;;;;;;0.00;0.00;;;;;;;15.60;49.08;100967.66;2052338;28;20054;-76
2022/12/10 04:39:51;;;;;;;0.00;0.00;;;;;;;15.59;48.77;100963.38;2057387;28;20112;-76
2022/12/10 04:40:53;;;;;;;0.00;0.00;;;;;;;15.61;48.88;100963.81;2062341;28;20058;-76
2022/12/10 04:41:56;;;;;;;0.00;0.00;;;;;;;15.61;49.05;100963.81;2048733;28;20086;-77
2022/12/10 04:42:58;;;;;;;0.00;0.00;;;;;;;15.61;49.04;100966.53;2055606;28;20054;-73
2022/12/10 04:44:00;;;;;;;0.00;0.00;;;;;;;15.63;48.95;100960.72;2058755;28;20058;-76
2022/12/10 04:45:03;;;;;;;0.00;0.00;;;;;;;15.62;48.83;100961.88;2056743;28;20152;-73
2022/12/10 04:46:06;;;;;;;0.00;0.00;;;;;;;15.61;48.92;100963.81;2055085;28;20046;-75
2022/12/10 04:47:09;;;;;;;0.00;0.00;;;;;;;15.62;48.85;100965.38;2053857;28;20637;-75
2022/12/10 04:48:12;;;;;;;0.00;0.00;;;;;;;15.62;48.96;100968.09;2052000;28;20054;-75
2022/12/10 04:49:16;;;;;;;0.00;0.00;;;;;;;15.63;48.87;100960.72;2057179;28;20465;-76
2022/12/10 04:50:18;;;;;;;0.00;0.00;;;;;;;15.61;49.07;100957.56;2051773;28;20769;-76
2022/12/10 04:51:20;;;;;;;0.00;0.00;;;;;;;15.62;48.91;100964.59;2050620;28;20466;-76
2022/12/10 04:52:23;;;;;;;0.00;0.00;;;;;;;15.63;49.00;100958.00;2058499;28;20070;-76
2022/12/10 04:53:25;;;;;;;0.00;0.00;;;;;;;15.63;49.05;100961.50;2062963;28;20104;-74
2022/12/10 04:54:28;;;;;;;0.00;0.00;;;;;;;15.62;48.97;100965.38;2053447;28;20061;-74
2022/12/10 04:55:37;;;;;;;0.00;0.00;;;;;;;15.60;49.09;100962.22;2057635;28;20061;-74
2022/12/10 04:56:41;;;;;;;0.00;0.00;;;;;;;15.62;48.93;100959.16;2052155;28;20051;-76
2022/12/10 04:57:43;;;;;;;0.00;0.00;;;;;;;15.62;49.01;100959.16;2052406;28;20062;-75
2022/12/10 04:58:45;;;;;;;0.00;0.00;;;;;;;15.62;48.92;100959.16;2051924;28;20090;-74
2022/12/10 04:59:48;;;;;;;0.00;0.00;;;;;;;15.61;48.95;100958.38;2050601;28;20411;-75
2022/12/10 05:00:50;;;;;;;0.00;0.00;;;;;;;15.61;49.01;100955.66;2053856;28;20054;-75
2022/12/10 05:01:53;;;;;;;0.00;0.00;;;;;;;15.62;48.91;100959.94;2046080;28;20057;-75
2022/12/10 05:02:55;;;;;;;0.00;0.00;;;;;;;15.62;48.85;100957.19;2051675;28;20554;-75
2022/12/10 05:04:00;;;;;;;0.00;0.00;;;;;;;15.63;49.00;100949.84;2054989;28;20062;-75
2022/12/10 05:05:04;;;;;;;0.00;0.00;;;;;;;15.62;48.93;100957.19;2050584;28;20086;-75
2022/12/10 05:06:09;;;;;;;0.00;0.00;;;;;;;15.62;49.10;100957.19;2054640;28;20059;-75
2022/12/10 05:07:11;;;;;;;0.00;0.00;;;;;;;15.61;48.87;100955.66;2048449;28;20055;-75
2022/12/10 05:08:13;;;;;;;0.00;0.00;;;;;;;15.61;48.94;100963.03;2049507;28;20129;-75
2022/12/10 05:09:17;;;;;;;0.00;0.00;;;;;;;15.63;48.96;100960.72;2051358;28;20066;-75
2022/12/10 05:10:20;;;;;;;0.00;0.00;;;;;;;15.62;49.04;100970.81;2047968;28;20537;-75
2022/12/10 05:11:25;;;;;;;0.00;0.00;;;;;;;15.61;48.83;100963.03;2053954;28;20063;-75
2022/12/10 05:12:28;;;;;;;0.00;0.00;;;;;;;15.62;48.91;100972.78;2053575;28;20059;-76